メインページ
METAR-TAF:

METAR-TAF

空港 :

プルコヴォ空港

サンクトペテルブルク, ロシア

緯度: 59-58N, 経度: 030-18E, 海抜: 4m

現時点の気象観測

当レポートは16分前の21:00(UTC)に作成
西/南西の風 12kt
気温 16°C
湿度 82%
気圧 1011 hPa
視程10km以上
1,500メートル以下は雲なし、積乱雲なし

METAR: ULLI 192100Z 25006MPS CAVOK 16/13 Q1011 R28R/290050 NOSIG

時間: 00:16 (21:16 UTC)

予報

当レポートは1時間17分前の19:59(UTC)に作成
予報は19日の 21時(UTC)から 20日の 21時(UTC)まで有効
西/南西の風 6kt
視程: 3100m
高度1100ftの千切れ雲あり
高度3000ftの千切れ雲あり
19日の 23時(UTC)から 20日の 06時(UTC)まで一時的に
視程: 0300m
高度300ftの千切れ雲あり
20日の 06時(UTC)から 20日の 08時(UTC)まで徐々に
視程10km以上
高度600ftの雲はほとんどない
20日の 09時(UTC)から 20日の 11時(UTC)まで徐々に
東/北東の風 6kt、最大16ktの突風を伴う
20日の 09時(UTC)から 20日の 15時(UTC)まで一時的に
視程: 3100m
高度2000ftの千切れ雲あり, 積乱雲.
弱いにわか雨
20日の 15時(UTC)から 20日の 21時(UTC)まで一時的に
視程: 2100m
高度600ftの千切れ雲あり
高度1500ftの千切れ雲あり, 積乱雲.
弱いにわか雨, 靄

TAF: ULLI 191959Z 1921/2021 25003MPS 3100 BR BKN011 BKN030 TEMPO 1923/2006 0300 FG BKN003 BECMG 2006/2008 9999 NSW FEW006 BECMG 2009/2011 07003G08MPS TEMPO 2009/2015 3100 -SHRA BKN020CB TEMPO 2015/2021 2100 -SHRA BR BKN006 BKN015CB

4,000以上の空港の気象観測と天気予報(METAR報とTAF報)

利用可能な観測所は地図上に黄色い丸と赤い丸で示す。

丸の上にカーソルを重ねると観測所名を参照できる。

次にクリックすると気象観測と天気予報を参照できる。

マップの切り替え:黒色「×」印の緑ボタンをクリックして拡大、「-」印の緑ボタンをクリックして縮小、緑色の三角印をクリックして隣りの地図に切り替え


METAR-TAF: